createdAt,value
2023-03-22T00:01:10.674Z,3.88
2023-03-22T00:03:40.975Z,3.40
2023-03-22T00:06:12.164Z,3.95
2023-03-22T00:08:41.253Z,4.13
2023-03-22T00:11:15.404Z,3.72
2023-03-22T00:13:47.147Z,4.63
2023-03-22T00:16:16.050Z,4.50
2023-03-22T00:18:45.172Z,4.35
2023-03-22T00:21:17.330Z,4.55
2023-03-22T00:23:45.764Z,4.15
2023-03-22T00:26:16.473Z,4.10
2023-03-22T00:28:48.472Z,4.30
2023-03-22T00:31:20.647Z,4.57
2023-03-22T00:33:49.817Z,4.07
2023-03-22T00:36:23.334Z,4.10
2023-03-22T00:38:53.657Z,4.10
2023-03-22T00:41:25.431Z,4.47
2023-03-22T00:43:54.213Z,4.55
2023-03-22T00:46:25.898Z,4.43
2023-03-22T00:48:58.606Z,4.07
2023-03-22T00:51:27.088Z,4.38
2023-03-22T00:53:56.245Z,4.28
2023-03-22T00:56:28.824Z,4.22
2023-03-22T00:59:19.155Z,4.10
2023-03-22T01:01:48.374Z,4.65
2023-03-22T01:04:18.239Z,4.53
2023-03-22T01:06:50.682Z,4.75
2023-03-22T01:09:23.912Z,4.47
2023-03-22T01:11:52.669Z,4.90
2023-03-22T01:14:21.856Z,4.63
2023-03-22T01:16:50.695Z,4.80
2023-03-22T01:19:21.750Z,4.97
2023-03-22T01:21:50.481Z,5.25
2023-03-22T01:24:19.932Z,5.43
2023-03-22T01:26:48.482Z,4.60
2023-03-22T01:29:17.016Z,4.57
2023-03-22T01:31:45.709Z,5.32
2023-03-22T01:34:15.536Z,4.90
2023-03-22T01:36:45.239Z,4.72
2023-03-22T01:39:14.948Z,5.30
2023-03-22T01:41:50.447Z,6.28
2023-03-22T01:44:23.996Z,5.28
2023-03-22T01:46:55.913Z,5.80
2023-03-22T01:49:28.740Z,4.97
2023-03-22T01:51:58.304Z,5.45
2023-03-22T01:54:44.816Z,5.93
2023-03-22T01:57:28.070Z,5.32
2023-03-22T01:59:59.712Z,4.93
2023-03-22T02:03:31.805Z,6.15
2023-03-22T02:06:00.948Z,5.45
2023-03-22T02:08:32.881Z,5.65
2023-03-22T02:11:04.427Z,6.53
2023-03-22T02:14:05.820Z,6.05
2023-03-22T02:17:07.142Z,6.40
2023-03-22T02:19:51.975Z,5.55
2023-03-22T02:22:32.089Z,6.53
2023-03-22T02:25:12.604Z,6.97
2023-03-22T02:27:55.754Z,6.45
2023-03-22T02:30:29.742Z,6.85
2023-03-22T02:33:11.122Z,6.40
2023-03-22T02:35:50.429Z,7.10
2023-03-22T02:38:18.535Z,6.15
2023-03-22T02:40:55.319Z,6.43
2023-03-22T02:43:38.619Z,6.43
2023-03-22T02:46:17.812Z,7.47
2023-03-22T02:48:54.266Z,6.68
2023-03-22T02:51:25.877Z,6.32
2023-03-22T02:53:57.474Z,6.05
2023-03-22T02:56:27.817Z,6.70
2023-03-22T02:58:57.431Z,7.15
2023-03-22T03:01:30.357Z,7.50
2023-03-22T03:04:04.730Z,7.00
2023-03-22T03:06:39.900Z,7.13
2023-03-22T03:09:09.895Z,7.27
2023-03-22T03:11:50.783Z,9.00
2023-03-22T03:14:27.861Z,6.75
2023-03-22T03:17:18.368Z,8.52
2023-03-22T03:20:08.203Z,7.10
2023-03-22T03:22:47.960Z,7.43
2023-03-22T03:25:26.495Z,7.50
2023-03-22T03:28:00.595Z,7.25
2023-03-22T03:30:32.718Z,8.20
2023-03-22T03:33:10.996Z,7.20
2023-03-22T03:35:42.050Z,7.75
2023-03-22T03:38:18.592Z,8.68
2023-03-22T03:40:48.818Z,8.43
2023-03-22T03:43:17.549Z,7.95
2023-03-22T03:45:47.322Z,8.70
2023-03-22T03:48:20.749Z,7.80
2023-03-22T03:50:52.701Z,8.20
2023-03-22T03:53:25.011Z,8.27
2023-03-22T03:55:58.555Z,8.23
2023-03-22T03:58:32.936Z,8.23
2023-03-22T04:01:03.994Z,7.65
2023-03-22T04:03:55.484Z,7.45
2023-03-22T04:09:13.525Z,8.45
2023-03-22T04:11:47.463Z,7.88
2023-03-22T04:14:17.348Z,8.38
2023-03-22T04:16:49.282Z,7.82
2023-03-22T04:19:21.180Z,8.32
2023-03-22T04:21:49.932Z,7.95
2023-03-22T04:24:18.641Z,8.88
2023-03-22T04:26:52.374Z,7.32
2023-03-22T04:29:36.204Z,7.90
2023-03-22T04:32:24.876Z,8.73
2023-03-22T04:34:54.780Z,7.28
2023-03-22T04:37:28.225Z,7.38
2023-03-22T04:40:17.088Z,7.47
2023-03-22T04:43:05.576Z,6.95
2023-03-22T04:45:46.182Z,7.43
2023-03-22T04:48:22.118Z,7.18
2023-03-22T04:50:53.268Z,7.35
2023-03-22T04:53:27.350Z,7.63
2023-03-22T04:56:00.426Z,6.18
2023-03-22T04:58:32.634Z,7.57
2023-03-22T05:01:02.640Z,6.70
2023-03-22T05:03:43.229Z,6.40
2023-03-22T05:06:11.781Z,6.50
2023-03-22T05:08:54.860Z,7.10
2023-03-22T05:11:24.306Z,6.85
2023-03-22T05:14:13.543Z,6.60
2023-03-22T05:16:43.638Z,6.00
2023-03-22T05:19:14.941Z,6.32
2023-03-22T05:21:57.883Z,5.72
2023-03-22T05:24:33.921Z,5.75
2023-03-22T05:27:03.824Z,5.05
2023-03-22T05:29:38.264Z,5.90
2023-03-22T05:32:12.465Z,5.40
2023-03-22T05:34:45.508Z,5.60
2023-03-22T05:37:25.676Z,5.93
2023-03-22T05:40:02.087Z,5.40
2023-03-22T05:42:49.730Z,5.95
2023-03-22T05:45:23.106Z,4.63
2023-03-22T05:48:05.473Z,5.00
2023-03-22T05:50:34.928Z,5.80
2023-03-22T05:53:04.316Z,5.45
2023-03-22T05:55:45.374Z,4.55
2023-03-22T05:58:19.049Z,5.43
2023-03-22T06:00:51.449Z,5.50
2023-03-22T06:03:29.103Z,5.82
2023-03-22T06:06:06.730Z,5.28
2023-03-22T06:08:41.680Z,5.63
2023-03-22T06:11:09.991Z,5.07
2023-03-22T06:13:41.233Z,6.05
2023-03-22T06:16:11.459Z,5.40
2023-03-22T06:18:40.741Z,5.00
2023-03-22T06:21:13.655Z,5.70
2023-03-22T06:23:45.783Z,5.07
2023-03-22T06:26:14.613Z,4.90
2023-03-22T06:28:46.931Z,5.35
2023-03-22T06:31:17.912Z,5.32
2023-03-22T06:33:59.745Z,4.40
2023-03-22T06:36:37.315Z,4.80
2023-03-22T06:39:21.276Z,4.88
2023-03-22T06:41:51.223Z,4.97
2023-03-22T06:44:23.497Z,5.50
2023-03-22T06:46:52.017Z,4.80
2023-03-22T06:49:47.439Z,5.20
2023-03-22T06:52:21.824Z,5.00
2023-03-22T06:54:51.350Z,5.00
2023-03-22T06:57:20.742Z,3.90
2023-03-22T06:59:50.036Z,3.63
2023-03-22T07:02:21.802Z,4.32
2023-03-22T07:05:10.399Z,4.85
2023-03-22T07:07:42.532Z,4.68
2023-03-22T07:10:15.967Z,5.13
2023-03-22T07:12:44.551Z,4.88
2023-03-22T07:15:18.827Z,4.30
2023-03-22T07:18:00.973Z,3.92
2023-03-22T07:20:38.641Z,3.90
2023-03-22T07:23:10.793Z,3.20
2023-03-22T07:25:50.049Z,2.80
2023-03-22T07:28:27.633Z,3.28
2023-03-22T07:31:02.591Z,3.25
2023-03-22T07:33:52.160Z,2.70
2023-03-22T07:36:25.728Z,3.28
2023-03-22T07:38:56.929Z,3.42
2023-03-22T07:41:35.511Z,3.13
2023-03-22T07:44:23.439Z,2.33
2023-03-22T07:47:37.867Z,2.05
2023-03-22T07:50:19.980Z,1.90
2023-03-22T07:52:55.933Z,2.03
2023-03-22T07:55:25.514Z,1.73
2023-03-22T07:57:54.443Z,2.15
2023-03-22T08:00:27.092Z,2.00
2023-03-22T08:03:26.584Z,2.05
2023-03-22T08:06:08.698Z,1.73
2023-03-22T08:08:41.530Z,1.98
2023-03-22T08:11:12.529Z,3.40
2023-03-22T08:13:41.912Z,1.40
2023-03-22T08:16:13.702Z,1.77
2023-03-22T08:18:45.919Z,1.83
2023-03-22T08:21:15.963Z,2.22
2023-03-22T08:23:51.241Z,1.42
2023-03-22T08:26:39.392Z,1.80
2023-03-22T08:29:17.744Z,1.30
2023-03-22T08:31:52.588Z,0.85
2023-03-22T08:34:21.553Z,1.02
2023-03-22T08:36:51.110Z,0.82
2023-03-22T08:39:21.317Z,0.73
2023-03-22T08:42:05.600Z,1.10
2023-03-22T08:44:36.800Z,1.40
2023-03-22T08:47:07.074Z,0.88
2023-03-22T08:49:39.972Z,0.52
2023-03-22T08:52:16.326Z,0.60
2023-03-22T08:55:01.108Z,1.10
2023-03-22T08:57:51.773Z,1.02
2023-03-22T09:00:49.989Z,2.42
2023-03-22T09:03:45.465Z,0.90
2023-03-22T09:06:14.724Z,1.00
2023-03-22T09:08:52.045Z,0.90
2023-03-22T09:11:24.832Z,0.70
2023-03-22T09:13:56.281Z,0.93
2023-03-22T09:16:26.318Z,0.80
2023-03-22T09:18:58.973Z,1.13
2023-03-22T09:21:29.816Z,0.85
2023-03-22T09:24:09.177Z,0.82
2023-03-22T09:26:46.592Z,0.75
2023-03-22T09:29:20.956Z,0.73
2023-03-22T09:31:51.940Z,0.60
2023-03-22T09:34:28.120Z,0.80
2023-03-22T09:37:02.268Z,0.85
2023-03-22T09:39:40.943Z,0.88
2023-03-22T09:42:29.164Z,1.05
2023-03-22T09:44:59.168Z,0.60
2023-03-22T09:47:44.326Z,0.85
2023-03-22T09:50:16.517Z,0.65
2023-03-22T09:52:45.241Z,1.00
2023-03-22T09:55:20.785Z,1.05
2023-03-22T09:58:19.822Z,0.52
2023-03-22T10:00:59.533Z,0.80
2023-03-22T10:03:40.016Z,0.60
2023-03-22T10:06:29.566Z,1.40
2023-03-22T10:08:57.839Z,1.10
2023-03-22T10:11:47.327Z,0.52
2023-03-22T10:14:18.346Z,0.80
2023-03-22T10:16:53.772Z,1.17
2023-03-22T10:19:41.426Z,1.35
2023-03-22T10:22:13.592Z,2.17
2023-03-22T10:24:45.346Z,0.80
2023-03-22T10:27:18.163Z,0.75
2023-03-22T10:29:49.500Z,0.90
2023-03-22T10:32:31.060Z,0.98
2023-03-22T10:35:03.602Z,0.82
2023-03-22T10:37:41.851Z,1.23
2023-03-22T10:40:18.047Z,1.63
2023-03-22T10:42:52.438Z,0.63
2023-03-22T10:45:22.438Z,0.60
2023-03-22T10:47:50.901Z,0.80
2023-03-22T10:50:22.030Z,0.88
2023-03-22T10:53:08.921Z,1.02
2023-03-22T10:55:42.358Z,0.95
2023-03-22T10:58:18.420Z,1.80
2023-03-22T11:00:49.128Z,0.80
2023-03-22T11:03:29.092Z,0.60
2023-03-22T11:06:17.802Z,1.00
2023-03-22T11:08:50.489Z,1.02
2023-03-22T11:11:26.071Z,0.57
2023-03-22T11:14:01.025Z,1.50
2023-03-22T11:16:41.648Z,0.75
2023-03-22T11:19:16.027Z,0.98
2023-03-22T11:21:46.170Z,1.17
2023-03-22T11:24:15.321Z,0.90
2023-03-22T11:27:02.312Z,1.10
2023-03-22T11:29:41.704Z,0.88
2023-03-22T11:32:28.795Z,0.70
2023-03-22T11:35:18.517Z,1.05
2023-03-22T11:37:48.470Z,0.90
2023-03-22T11:40:17.791Z,0.70
2023-03-22T11:42:47.610Z,1.10
2023-03-22T11:45:39.633Z,0.77
2023-03-22T11:48:10.790Z,0.90
2023-03-22T11:50:47.475Z,0.93
2023-03-22T11:53:28.312Z,0.73
2023-03-22T11:55:58.167Z,1.27
2023-03-22T11:58:40.815Z,0.77
2023-03-22T12:01:25.379Z,0.80
2023-03-22T12:03:56.826Z,0.77
2023-03-22T12:06:28.943Z,0.65
2023-03-22T12:09:04.431Z,0.60
2023-03-22T12:11:42.093Z,1.05
2023-03-22T12:14:13.601Z,1.02
2023-03-22T12:16:47.108Z,1.85
2023-03-22T12:19:39.200Z,0.40
2023-03-22T12:22:11.945Z,0.73
2023-03-22T12:24:43.082Z,0.70
2023-03-22T12:27:22.924Z,0.98
2023-03-22T12:29:55.643Z,0.75
2023-03-22T12:32:30.286Z,0.80
2023-03-22T12:35:34.742Z,1.25
2023-03-22T12:37:52.544Z,1.00
2023-03-22T12:40:25.649Z,0.57
2023-03-22T12:42:58.952Z,0.60
2023-03-22T12:45:33.230Z,0.60
2023-03-22T12:48:05.029Z,0.82
2023-03-22T12:50:36.720Z,0.98
2023-03-22T12:53:08.695Z,0.60
2023-03-22T12:55:41.221Z,0.93
2023-03-22T12:58:11.511Z,0.90
2023-03-22T13:00:43.682Z,0.80
2023-03-22T13:03:46.753Z,0.77
2023-03-22T13:06:31.093Z,0.50
2023-03-22T13:09:08.900Z,1.05
2023-03-22T13:11:37.559Z,0.73
2023-03-22T13:14:05.808Z,0.40
2023-03-22T13:16:50.410Z,0.80
2023-03-22T13:19:34.970Z,0.75
2023-03-22T13:22:40.473Z,0.57
2023-03-22T13:25:12.856Z,0.70
2023-03-22T13:27:44.834Z,0.90
2023-03-22T13:30:18.008Z,0.82
2023-03-22T13:33:13.306Z,0.70
2023-03-22T13:35:50.997Z,0.68
2023-03-22T13:38:26.849Z,1.27
2023-03-22T13:41:17.936Z,0.88
2023-03-22T13:43:46.734Z,0.77
2023-03-22T13:46:20.843Z,1.00
2023-03-22T13:48:50.703Z,0.57
2023-03-22T13:51:22.033Z,2.20
2023-03-22T13:54:00.343Z,0.60
2023-03-22T13:56:34.865Z,1.10
2023-03-22T13:59:05.047Z,0.90
2023-03-22T14:02:15.655Z,0.77
2023-03-22T14:04:50.094Z,0.75
2023-03-22T14:07:21.731Z,0.60
2023-03-22T14:09:55.353Z,0.63
2023-03-22T14:12:37.671Z,1.13
2023-03-22T14:15:07.802Z,0.80
2023-03-22T14:17:43.218Z,0.77
2023-03-22T14:20:19.220Z,0.88
